Terminal Aerodrome Forecast
Issued by NWS

Home | Current Version | Previous Version | Text Only | Print | Product List | Glossary On
Versions: 1 2 3 4 5 6 7 8 9 10 11 12 13 14 15 16 17
000
FTUS42 KTAE 220500
TAFVLD
TAF
KVLD 220520Z 2206/2306 00000KT P6SM SCT250
      TEMPO 2210/2212 5SM BR
     FM221400 35005KT P6SM SCT030
     FM222200 15006KT P6SM SCT050
     FM230200 00000KT P6SM SCT250=

USA.gov is the U.S. government's official web portal to all federal, state and local government web resources and services.